sensor_id;sensor_type;location;lat;lon;timestamp;pressure;altitude;pressure_sealevel;temperature;humidity
13867;BME280;7003;46.982;15.248;2022-11-18T00:01:21;95692.72;;;3.84;100.00
13867;BME280;7003;46.982;15.248;2022-11-18T00:03:52;95699.38;;;3.82;100.00
13867;BME280;7003;46.982;15.248;2022-11-18T00:06:21;95698.44;;;3.86;100.00
13867;BME280;7003;46.982;15.248;2022-11-18T00:08:49;95696.78;;;4.03;100.00
13867;BME280;7003;46.982;15.248;2022-11-18T00:11:19;95702.03;;;4.03;100.00
13867;BME280;7003;46.982;15.248;2022-11-18T00:14:00;95710.50;;;4.17;100.00
13867;BME280;7003;46.982;15.248;2022-11-18T00:16:48;95697.78;;;3.90;100.00
13867;BME280;7003;46.982;15.248;2022-11-18T00:19:18;95683.13;;;3.80;100.00
13867;BME280;7003;46.982;15.248;2022-11-18T00:21:47;95680.84;;;3.78;100.00
13867;BME280;7003;46.982;15.248;2022-11-18T00:24:15;95673.53;;;3.84;100.00
13867;BME280;7003;46.982;15.248;2022-11-18T00:26:42;95672.97;;;3.99;100.00
13867;BME280;7003;46.982;15.248;2022-11-18T00:29:11;95663.44;;;3.95;100.00
13867;BME280;7003;46.982;15.248;2022-11-18T00:31:38;95673.47;;;4.22;100.00
13867;BME280;7003;46.982;15.248;2022-11-18T00:34:06;95658.44;;;4.02;100.00
13867;BME280;7003;46.982;15.248;2022-11-18T00:36:35;95654.53;;;4.08;100.00
13867;BME280;7003;46.982;15.248;2022-11-18T00:39:02;95655.72;;;4.40;100.00
13867;BME280;7003;46.982;15.248;2022-11-18T00:41:31;95667.19;;;4.35;100.00
13867;BME280;7003;46.982;15.248;2022-11-18T00:44:12;95679.50;;;4.22;100.00
13867;BME280;7003;46.982;15.248;2022-11-18T00:46:43;95683.72;;;4.15;100.00
13867;BME280;7003;46.982;15.248;2022-11-18T00:49:12;95679.91;;;4.04;100.00
13867;BME280;7003;46.982;15.248;2022-11-18T00:51:40;95679.34;;;3.98;100.00
13867;BME280;7003;46.982;15.248;2022-11-18T00:54:10;95680.25;;;4.02;100.00
13867;BME280;7003;46.982;15.248;2022-11-18T00:56:40;95669.28;;;4.00;100.00
13867;BME280;7003;46.982;15.248;2022-11-18T00:59:09;95669.22;;;4.09;100.00
13867;BME280;7003;46.982;15.248;2022-11-18T01:01:38;95663.66;;;4.10;100.00
13867;BME280;7003;46.982;15.248;2022-11-18T01:04:08;95658.81;;;4.12;100.00
13867;BME280;7003;46.982;15.248;2022-11-18T01:06:35;95656.13;;;4.21;100.00
13867;BME280;7003;46.982;15.248;2022-11-18T01:09:03;95636.72;;;4.05;100.00
13867;BME280;7003;46.982;15.248;2022-11-18T01:11:31;95625.75;;;4.03;100.00
13867;BME280;7003;46.982;15.248;2022-11-18T01:14:15;95608.88;;;4.04;100.00
13867;BME280;7003;46.982;15.248;2022-11-18T01:16:45;95622.19;;;4.07;100.00
13867;BME280;7003;46.982;15.248;2022-11-18T01:19:16;95620.88;;;3.93;100.00
13867;BME280;7003;46.982;15.248;2022-11-18T01:21:45;95620.16;;;3.83;100.00
13867;BME280;7003;46.982;15.248;2022-11-18T01:24:14;95623.81;;;3.91;100.00
13867;BME280;7003;46.982;15.248;2022-11-18T01:26:41;95616.72;;;4.12;100.00
13867;BME280;7003;46.982;15.248;2022-11-18T01:29:11;95601.22;;;3.90;100.00
13867;BME280;7003;46.982;15.248;2022-11-18T01:31:40;95578.06;;;3.83;100.00
13867;BME280;7003;46.982;15.248;2022-11-18T01:34:09;95588.75;;;3.87;100.00
13867;BME280;7003;46.982;15.248;2022-11-18T01:36:36;95580.19;;;3.90;100.00
13867;BME280;7003;46.982;15.248;2022-11-18T01:39:04;95567.69;;;3.87;100.00
13867;BME280;7003;46.982;15.248;2022-11-18T01:41:32;95566.16;;;3.86;100.00
13867;BME280;7003;46.982;15.248;2022-11-18T01:44:01;95579.38;;;3.98;100.00
13867;BME280;7003;46.982;15.248;2022-11-18T01:46:30;95578.72;;;4.01;100.00
13867;BME280;7003;46.982;15.248;2022-11-18T01:49:03;95567.03;;;3.90;100.00
13867;BME280;7003;46.982;15.248;2022-11-18T01:51:33;95570.25;;;4.16;100.00
13867;BME280;7003;46.982;15.248;2022-11-18T01:54:07;95563.06;;;4.05;100.00
13867;BME280;7003;46.982;15.248;2022-11-18T01:56:41;95554.19;;;3.88;100.00
13867;BME280;7003;46.982;15.248;2022-11-18T01:59:11;95553.81;;;3.78;100.00
13867;BME280;7003;46.982;15.248;2022-11-18T02:01:42;95572.75;;;3.92;100.00
13867;BME280;7003;46.982;15.248;2022-11-18T02:04:13;95577.97;;;4.01;100.00
13867;BME280;7003;46.982;15.248;2022-11-18T02:06:44;95565.81;;;3.87;100.00
13867;BME280;7003;46.982;15.248;2022-11-18T02:09:13;95557.81;;;3.84;100.00
13867;BME280;7003;46.982;15.248;2022-11-18T02:11:44;95549.28;;;3.87;100.00
13867;BME280;7003;46.982;15.248;2022-11-18T02:14:24;95545.72;;;3.83;100.00
13867;BME280;7003;46.982;15.248;2022-11-18T02:17:03;95537.28;;;3.77;100.00
13867;BME280;7003;46.982;15.248;2022-11-18T02:19:54;95537.06;;;3.82;100.00
13867;BME280;7003;46.982;15.248;2022-11-18T02:22:41;95540.53;;;3.95;100.00
13867;BME280;7003;46.982;15.248;2022-11-18T02:25:18;95551.19;;;3.78;100.00
13867;BME280;7003;46.982;15.248;2022-11-18T02:28:18;95559.09;;;3.78;100.00
13867;BME280;7003;46.982;15.248;2022-11-18T02:30:56;95550.75;;;3.76;100.00
13867;BME280;7003;46.982;15.248;2022-11-18T02:33:29;95555.63;;;3.86;100.00
13867;BME280;7003;46.982;15.248;2022-11-18T02:36:04;95558.38;;;3.90;100.00
13867;BME280;7003;46.982;15.248;2022-11-18T02:38:35;95555.44;;;3.91;100.00
13867;BME280;7003;46.982;15.248;2022-11-18T02:41:13;95555.13;;;3.93;100.00
13867;BME280;7003;46.982;15.248;2022-11-18T02:43:45;95541.00;;;3.76;100.00
13867;BME280;7003;46.982;15.248;2022-11-18T02:46:16;95539.69;;;3.82;100.00
13867;BME280;7003;46.982;15.248;2022-11-18T02:48:47;95536.31;;;3.82;100.00
13867;BME280;7003;46.982;15.248;2022-11-18T02:51:20;95541.41;;;3.87;100.00
13867;BME280;7003;46.982;15.248;2022-11-18T02:53:55;95549.72;;;3.89;100.00
13867;BME280;7003;46.982;15.248;2022-11-18T02:56:28;95551.00;;;4.04;100.00
13867;BME280;7003;46.982;15.248;2022-11-18T02:58:58;95557.84;;;3.96;100.00
13867;BME280;7003;46.982;15.248;2022-11-18T03:01:29;95563.97;;;4.09;100.00
13867;BME280;7003;46.982;15.248;2022-11-18T03:04:00;95552.22;;;3.85;100.00
13867;BME280;7003;46.982;15.248;2022-11-18T03:06:34;95551.81;;;3.75;100.00
13867;BME280;7003;46.982;15.248;2022-11-18T03:09:09;95555.41;;;3.70;100.00
13867;BME280;7003;46.982;15.248;2022-11-18T03:11:46;95558.06;;;3.70;100.00
13867;BME280;7003;46.982;15.248;2022-11-18T03:14:22;95553.38;;;3.76;100.00
13867;BME280;7003;46.982;15.248;2022-11-18T03:16:58;95541.63;;;3.73;100.00
13867;BME280;7003;46.982;15.248;2022-11-18T03:19:48;95543.94;;;3.75;100.00
13867;BME280;7003;46.982;15.248;2022-11-18T03:22:23;95548.38;;;3.83;100.00
13867;BME280;7003;46.982;15.248;2022-11-18T03:24:58;95541.88;;;3.80;100.00
13867;BME280;7003;46.982;15.248;2022-11-18T03:27:34;95541.75;;;3.77;100.00
13867;BME280;7003;46.982;15.248;2022-11-18T03:30:07;95538.88;;;3.70;100.00
13867;BME280;7003;46.982;15.248;2022-11-18T03:32:40;95532.00;;;3.77;100.00
13867;BME280;7003;46.982;15.248;2022-11-18T03:35:16;95529.44;;;3.69;100.00
13867;BME280;7003;46.982;15.248;2022-11-18T03:37:48;95536.25;;;3.70;100.00
13867;BME280;7003;46.982;15.248;2022-11-18T03:40:21;95526.72;;;3.57;100.00
13867;BME280;7003;46.982;15.248;2022-11-18T03:42:55;95523.78;;;3.58;100.00
13867;BME280;7003;46.982;15.248;2022-11-18T03:45:25;95529.28;;;3.65;100.00
13867;BME280;7003;46.982;15.248;2022-11-18T03:48:00;95521.97;;;3.50;100.00
13867;BME280;7003;46.982;15.248;2022-11-18T03:50:36;95521.84;;;3.46;100.00
13867;BME280;7003;46.982;15.248;2022-11-18T03:53:06;95505.97;;;3.64;100.00
13867;BME280;7003;46.982;15.248;2022-11-18T03:55:39;95514.34;;;3.57;100.00
13867;BME280;7003;46.982;15.248;2022-11-18T03:58:11;95516.44;;;3.43;100.00
13867;BME280;7003;46.982;15.248;2022-11-18T04:00:46;95510.69;;;3.49;100.00
13867;BME280;7003;46.982;15.248;2022-11-18T04:03:18;95510.06;;;3.53;100.00
13867;BME280;7003;46.982;15.248;2022-11-18T04:05:52;95507.16;;;3.45;100.00
13867;BME280;7003;46.982;15.248;2022-11-18T04:08:28;95513.50;;;3.44;100.00
13867;BME280;7003;46.982;15.248;2022-11-18T04:11:07;95503.00;;;3.44;100.00
13867;BME280;7003;46.982;15.248;2022-11-18T04:14:02;95496.59;;;3.54;100.00
13867;BME280;7003;46.982;15.248;2022-11-18T04:16:39;95487.75;;;3.59;100.00
13867;BME280;7003;46.982;15.248;2022-11-18T04:19:10;95498.50;;;3.66;100.00
13867;BME280;7003;46.982;15.248;2022-11-18T04:21:43;95492.75;;;3.52;100.00
13867;BME280;7003;46.982;15.248;2022-11-18T04:24:11;95501.84;;;3.54;100.00
13867;BME280;7003;46.982;15.248;2022-11-18T04:26:41;95496.84;;;3.40;100.00
13867;BME280;7003;46.982;15.248;2022-11-18T04:29:08;95489.22;;;3.47;100.00
13867;BME280;7003;46.982;15.248;2022-11-18T04:31:41;95488.41;;;3.56;100.00
13867;BME280;7003;46.982;15.248;2022-11-18T04:34:10;95484.66;;;3.57;100.00
13867;BME280;7003;46.982;15.248;2022-11-18T04:36:40;95475.81;;;3.61;100.00
13867;BME280;7003;46.982;15.248;2022-11-18T04:39:07;95481.59;;;3.75;100.00
13867;BME280;7003;46.982;15.248;2022-11-18T04:41:35;95486.34;;;3.61;100.00
13867;BME280;7003;46.982;15.248;2022-11-18T04:44:20;95493.88;;;3.42;100.00
13867;BME280;7003;46.982;15.248;2022-11-18T04:46:50;95485.44;;;3.57;100.00
13867;BME280;7003;46.982;15.248;2022-11-18T04:49:20;95478.19;;;3.54;100.00
13867;BME280;7003;46.982;15.248;2022-11-18T04:51:47;95474.22;;;3.48;100.00
13867;BME280;7003;46.982;15.248;2022-11-18T04:54:15;95472.22;;;3.45;100.00
13867;BME280;7003;46.982;15.248;2022-11-18T04:56:43;95476.41;;;3.46;100.00
13867;BME280;7003;46.982;15.248;2022-11-18T04:59:11;95478.38;;;3.49;100.00
13867;BME280;7003;46.982;15.248;2022-11-18T05:01:41;95496.19;;;3.43;100.00
13867;BME280;7003;46.982;15.248;2022-11-18T05:04:12;95496.06;;;3.40;100.00
13867;BME280;7003;46.982;15.248;2022-11-18T05:06:41;95496.50;;;3.42;100.00
13867;BME280;7003;46.982;15.248;2022-11-18T05:09:09;95493.91;;;3.33;100.00
13867;BME280;7003;46.982;15.248;2022-11-18T05:11:38;95492.34;;;3.41;100.00
13867;BME280;7003;46.982;15.248;2022-11-18T05:14:24;95498.25;;;3.38;100.00
13867;BME280;7003;46.982;15.248;2022-11-18T05:16:53;95487.06;;;3.41;100.00
13867;BME280;7003;46.982;15.248;2022-11-18T05:19:20;95485.81;;;3.47;100.00
13867;BME280;7003;46.982;15.248;2022-11-18T05:21:51;95484.53;;;3.53;100.00
13867;BME280;7003;46.982;15.248;2022-11-18T05:24:21;95485.94;;;3.51;100.00
13867;BME280;7003;46.982;15.248;2022-11-18T05:26:49;95474.78;;;3.54;100.00
13867;BME280;7003;46.982;15.248;2022-11-18T05:29:17;95468.69;;;3.41;100.00
13867;BME280;7003;46.982;15.248;2022-11-18T05:31:45;95458.75;;;3.46;100.00
13867;BME280;7003;46.982;15.248;2022-11-18T05:34:13;95451.13;;;3.54;100.00
13867;BME280;7003;46.982;15.248;2022-11-18T05:36:40;95453.25;;;3.39;100.00
13867;BME280;7003;46.982;15.248;2022-11-18T05:39:09;95458.25;;;3.32;100.00
13867;BME280;7003;46.982;15.248;2022-11-18T05:41:38;95456.69;;;3.31;100.00
13867;BME280;7003;46.982;15.248;2022-11-18T05:44:25;95446.81;;;3.28;100.00
13867;BME280;7003;46.982;15.248;2022-11-18T05:46:54;95453.31;;;3.31;100.00
13867;BME280;7003;46.982;15.248;2022-11-18T05:49:22;95448.94;;;3.35;100.00
13867;BME280;7003;46.982;15.248;2022-11-18T05:51:49;95444.66;;;3.30;100.00
13867;BME280;7003;46.982;15.248;2022-11-18T05:54:19;95449.00;;;3.26;100.00
13867;BME280;7003;46.982;15.248;2022-11-18T05:56:51;95453.19;;;3.19;100.00
13867;BME280;7003;46.982;15.248;2022-11-18T05:59:21;95451.81;;;3.21;100.00
13867;BME280;7003;46.982;15.248;2022-11-18T06:01:52;95451.84;;;3.13;100.00
13867;BME280;7003;46.982;15.248;2022-11-18T06:04:29;95440.84;;;3.19;100.00
13867;BME280;7003;46.982;15.248;2022-11-18T06:07:03;95438.88;;;3.16;100.00
13867;BME280;7003;46.982;15.248;2022-11-18T06:09:40;95448.56;;;3.24;100.00
13867;BME280;7003;46.982;15.248;2022-11-18T06:12:13;95461.03;;;3.27;100.00
13867;BME280;7003;46.982;15.248;2022-11-18T06:14:45;95462.31;;;3.21;100.00
13867;BME280;7003;46.982;15.248;2022-11-18T06:17:17;95449.97;;;3.22;100.00
13867;BME280;7003;46.982;15.248;2022-11-18T06:19:50;95437.69;;;3.26;100.00
13867;BME280;7003;46.982;15.248;2022-11-18T06:22:24;95449.53;;;3.40;100.00
13867;BME280;7003;46.982;15.248;2022-11-18T06:24:55;95455.81;;;3.48;100.00
13867;BME280;7003;46.982;15.248;2022-11-18T06:27:24;95452.22;;;3.53;100.00
13867;BME280;7003;46.982;15.248;2022-11-18T06:29:54;95450.78;;;3.34;100.00
13867;BME280;7003;46.982;15.248;2022-11-18T06:32:22;95462.88;;;3.56;100.00
13867;BME280;7003;46.982;15.248;2022-11-18T06:34:51;95469.66;;;3.36;100.00
13867;BME280;7003;46.982;15.248;2022-11-18T06:37:22;95475.25;;;3.26;100.00
13867;BME280;7003;46.982;15.248;2022-11-18T06:39:50;95482.22;;;3.31;100.00
13867;BME280;7003;46.982;15.248;2022-11-18T06:42:23;95473.56;;;3.30;100.00
13867;BME280;7003;46.982;15.248;2022-11-18T06:45:13;95474.50;;;3.26;100.00
13867;BME280;7003;46.982;15.248;2022-11-18T06:47:43;95477.56;;;3.28;100.00
13867;BME280;7003;46.982;15.248;2022-11-18T06:50:14;95488.66;;;3.33;100.00
13867;BME280;7003;46.982;15.248;2022-11-18T06:52:43;95487.06;;;3.41;100.00
13867;BME280;7003;46.982;15.248;2022-11-18T06:55:16;95485.69;;;3.43;100.00
13867;BME280;7003;46.982;15.248;2022-11-18T06:57:48;95490.47;;;3.41;100.00
13867;BME280;7003;46.982;15.248;2022-11-18T07:00:16;95495.09;;;3.44;100.00
13867;BME280;7003;46.982;15.248;2022-11-18T07:02:46;95495.81;;;3.54;100.00
13867;BME280;7003;46.982;15.248;2022-11-18T07:05:15;95492.28;;;3.49;100.00
13867;BME280;7003;46.982;15.248;2022-11-18T07:07:43;95503.00;;;3.44;100.00
13867;BME280;7003;46.982;15.248;2022-11-18T07:10:10;95501.63;;;3.38;100.00
13867;BME280;7003;46.982;15.248;2022-11-18T07:12:41;95498.59;;;3.28;100.00
13867;BME280;7003;46.982;15.248;2022-11-18T07:15:12;95508.34;;;3.27;100.00
13867;BME280;7003;46.982;15.248;2022-11-18T07:17:40;95499.38;;;3.28;100.00
13867;BME280;7003;46.982;15.248;2022-11-18T07:20:13;95511.97;;;3.43;100.00
13867;BME280;7003;46.982;15.248;2022-11-18T07:22:43;95514.28;;;3.66;100.00
13867;BME280;7003;46.982;15.248;2022-11-18T07:25:11;95511.59;;;3.54;100.00
13867;BME280;7003;46.982;15.248;2022-11-18T07:27:39;95510.94;;;3.57;100.00
13867;BME280;7003;46.982;15.248;2022-11-18T07:30:08;95508.72;;;3.67;100.00
13867;BME280;7003;46.982;15.248;2022-11-18T07:32:38;95503.19;;;3.60;100.00
13867;BME280;7003;46.982;15.248;2022-11-18T07:35:07;95508.97;;;3.54;100.00
13867;BME280;7003;46.982;15.248;2022-11-18T07:37:36;95517.56;;;3.63;100.00
13867;BME280;7003;46.982;15.248;2022-11-18T07:40:05;95518.00;;;3.65;100.00
13867;BME280;7003;46.982;15.248;2022-11-18T07:42:36;95520.97;;;3.63;100.00
13867;BME280;7003;46.982;15.248;2022-11-18T07:45:10;95534.44;;;3.82;100.00
13867;BME280;7003;46.982;15.248;2022-11-18T07:47:40;95532.13;;;3.81;100.00
13867;BME280;7003;46.982;15.248;2022-11-18T07:50:08;95538.09;;;3.90;100.00
13867;BME280;7003;46.982;15.248;2022-11-18T07:52:36;95530.91;;;3.99;100.00
13867;BME280;7003;46.982;15.248;2022-11-18T07:55:06;95533.25;;;4.01;100.00
13867;BME280;7003;46.982;15.248;2022-11-18T07:57:34;95547.94;;;4.02;100.00
13867;BME280;7003;46.982;15.248;2022-11-18T08:00:03;95543.56;;;4.06;100.00
13867;BME280;7003;46.982;15.248;2022-11-18T08:02:31;95540.28;;;4.09;100.00
13867;BME280;7003;46.982;15.248;2022-11-18T08:05:01;95542.94;;;4.09;100.00
13867;BME280;7003;46.982;15.248;2022-11-18T08:07:32;95534.56;;;4.07;100.00
13867;BME280;7003;46.982;15.248;2022-11-18T08:10:03;95535.81;;;4.09;100.00
13867;BME280;7003;46.982;15.248;2022-11-18T08:12:32;95534.31;;;4.00;100.00
13867;BME280;7003;46.982;15.248;2022-11-18T08:15:00;95539.69;;;4.03;100.00
13867;BME280;7003;46.982;15.248;2022-11-18T08:17:31;95544.47;;;4.10;100.00
13867;BME280;7003;46.982;15.248;2022-11-18T08:20:05;95542.13;;;4.29;100.00
13867;BME280;7003;46.982;15.248;2022-11-18T08:22:33;95540.03;;;4.22;100.00
13867;BME280;7003;46.982;15.248;2022-11-18T08:25:04;95538.38;;;4.18;100.00
13867;BME280;7003;46.982;15.248;2022-11-18T08:27:34;95545.56;;;4.09;100.00
13867;BME280;7003;46.982;15.248;2022-11-18T08:30:06;95544.56;;;4.13;100.00
13867;BME280;7003;46.982;15.248;2022-11-18T08:32:36;95528.78;;;4.13;100.00
13867;BME280;7003;46.982;15.248;2022-11-18T08:35:08;95532.66;;;4.16;100.00
13867;BME280;7003;46.982;15.248;2022-11-18T08:37:38;95535.91;;;4.13;100.00
13867;BME280;7003;46.982;15.248;2022-11-18T08:40:07;95534.38;;;4.33;100.00
13867;BME280;7003;46.982;15.248;2022-11-18T08:42:37;95539.81;;;4.28;100.00
13867;BME280;7003;46.982;15.248;2022-11-18T08:45:06;95535.69;;;4.39;100.00
13867;BME280;7003;46.982;15.248;2022-11-18T08:47:35;95538.09;;;4.32;100.00
13867;BME280;7003;46.982;15.248;2022-11-18T08:50:06;95532.94;;;4.35;100.00
13867;BME280;7003;46.982;15.248;2022-11-18T08:52:36;95524.94;;;4.32;100.00
13867;BME280;7003;46.982;15.248;2022-11-18T08:55:05;95520.50;;;4.23;100.00
13867;BME280;7003;46.982;15.248;2022-11-18T08:57:35;95517.84;;;4.44;100.00
13867;BME280;7003;46.982;15.248;2022-11-18T09:00:04;95524.19;;;4.43;100.00
13867;BME280;7003;46.982;15.248;2022-11-18T09:02:36;95522.25;;;4.52;100.00
13867;BME280;7003;46.982;15.248;2022-11-18T09:05:05;95519.44;;;4.37;100.00
13867;BME280;7003;46.982;15.248;2022-11-18T09:07:35;95529.09;;;4.33;100.00
13867;BME280;7003;46.982;15.248;2022-11-18T09:10:06;95528.69;;;4.43;100.00
13867;BME280;7003;46.982;15.248;2022-11-18T09:12:36;95529.59;;;4.59;100.00
13867;BME280;7003;46.982;15.248;2022-11-18T09:15:07;95537.72;;;4.54;100.00
13867;BME280;7003;46.982;15.248;2022-11-18T09:17:36;95538.19;;;4.68;100.00
13867;BME280;7003;46.982;15.248;2022-11-18T09:20:06;95537.31;;;4.64;100.00
13867;BME280;7003;46.982;15.248;2022-11-18T09:22:37;95526.56;;;4.69;100.00
13867;BME280;7003;46.982;15.248;2022-11-18T09:25:09;95532.53;;;4.78;100.00
13867;BME280;7003;46.982;15.248;2022-11-18T09:27:37;95529.56;;;4.80;100.00
13867;BME280;7003;46.982;15.248;2022-11-18T09:30:07;95531.53;;;4.71;100.00
13867;BME280;7003;46.982;15.248;2022-11-18T09:32:35;95528.19;;;4.61;100.00
13867;BME280;7003;46.982;15.248;2022-11-18T09:35:06;95537.56;;;4.71;100.00
13867;BME280;7003;46.982;15.248;2022-11-18T09:37:39;95532.06;;;4.76;100.00
13867;BME280;7003;46.982;15.248;2022-11-18T09:40:15;95531.94;;;4.73;100.00
13867;BME280;7003;46.982;15.248;2022-11-18T09:42:54;95534.72;;;4.76;100.00
13867;BME280;7003;46.982;15.248;2022-11-18T09:45:27;95536.88;;;4.74;100.00
13867;BME280;7003;46.982;15.248;2022-11-18T09:47:59;95539.75;;;4.69;100.00
13867;BME280;7003;46.982;15.248;2022-11-18T09:50:30;95538.03;;;4.85;100.00
13867;BME280;7003;46.982;15.248;2022-11-18T09:53:05;95540.53;;;4.82;100.00
13867;BME280;7003;46.982;15.248;2022-11-18T09:55:37;95536.59;;;4.88;100.00
13867;BME280;7003;46.982;15.248;2022-11-18T09:58:10;95542.53;;;4.97;100.00
13867;BME280;7003;46.982;15.248;2022-11-18T10:00:42;95546.28;;;5.08;100.00
13867;BME280;7003;46.982;15.248;2022-11-18T10:03:22;95549.25;;;5.07;100.00
13867;BME280;7003;46.982;15.248;2022-11-18T10:05:56;95548.59;;;5.10;100.00
13867;BME280;7003;46.982;15.248;2022-11-18T10:08:35;95555.41;;;5.11;100.00
13867;BME280;7003;46.982;15.248;2022-11-18T10:11:14;95554.75;;;5.14;100.00
13867;BME280;7003;46.982;15.248;2022-11-18T10:13:51;95546.63;;;5.19;100.00
13867;BME280;7003;46.982;15.248;2022-11-18T10:16:33;95549.59;;;5.17;100.00
13867;BME280;7003;46.982;15.248;2022-11-18T10:19:12;95562.22;;;5.24;100.00
13867;BME280;7003;46.982;15.248;2022-11-18T10:21:53;95559.81;;;5.31;100.00
13867;BME280;7003;46.982;15.248;2022-11-18T10:24:29;95558.50;;;5.25;100.00
13867;BME280;7003;46.982;15.248;2022-11-18T10:27:07;95554.41;;;5.15;100.00
13867;BME280;7003;46.982;15.248;2022-11-18T10:29:35;95559.47;;;5.20;100.00
13867;BME280;7003;46.982;15.248;2022-11-18T10:32:05;95555.09;;;5.24;100.00
13867;BME280;7003;46.982;15.248;2022-11-18T10:34:46;95537.72;;;5.23;100.00
13867;BME280;7003;46.982;15.248;2022-11-18T10:37:22;95537.72;;;5.11;100.00
13867;BME280;7003;46.982;15.248;2022-11-18T10:39:56;95529.38;;;5.21;100.00
13867;BME280;7003;46.982;15.248;2022-11-18T10:42:28;95516.88;;;5.30;100.00
13867;BME280;7003;46.982;15.248;2022-11-18T10:45:15;95502.25;;;5.45;100.00
13867;BME280;7003;46.982;15.248;2022-11-18T10:47:56;95504.09;;;5.57;100.00
13867;BME280;7003;46.982;15.248;2022-11-18T10:50:29;95493.22;;;5.46;100.00
13867;BME280;7003;46.982;15.248;2022-11-18T10:53:02;95481.06;;;5.17;100.00
13867;BME280;7003;46.982;15.248;2022-11-18T10:55:32;95461.19;;;5.08;100.00
13867;BME280;7003;46.982;15.248;2022-11-18T10:58:06;95457.56;;;5.12;100.00
13867;BME280;7003;46.982;15.248;2022-11-18T11:00:41;95480.09;;;5.10;100.00
13867;BME280;7003;46.982;15.248;2022-11-18T11:03:31;95487.41;;;5.28;100.00
13867;BME280;7003;46.982;15.248;2022-11-18T11:06:26;95481.78;;;5.42;100.00
13867;BME280;7003;46.982;15.248;2022-11-18T11:09:01;95476.53;;;5.42;100.00
13867;BME280;7003;46.982;15.248;2022-11-18T11:11:33;95481.66;;;5.63;100.00
13867;BME280;7003;46.982;15.248;2022-11-18T11:14:17;95481.19;;;5.73;100.00
13867;BME280;7003;46.982;15.248;2022-11-18T11:17:04;95488.97;;;5.81;100.00
13867;BME280;7003;46.982;15.248;2022-11-18T11:19:44;95484.81;;;5.93;100.00
13867;BME280;7003;46.982;15.248;2022-11-18T11:22:17;95490.53;;;5.95;100.00
13867;BME280;7003;46.982;15.248;2022-11-18T11:24:48;95489.50;;;5.99;100.00
13867;BME280;7003;46.982;15.248;2022-11-18T11:27:41;95490.03;;;6.05;100.00
13867;BME280;7003;46.982;15.248;2022-11-18T11:30:16;95496.84;;;6.06;100.00
13867;BME280;7003;46.982;15.248;2022-11-18T11:33:12;95497.50;;;6.15;100.00
13867;BME280;7003;46.982;15.248;2022-11-18T11:35:51;95498.78;;;6.21;100.00
13867;BME280;7003;46.982;15.248;2022-11-18T11:38:31;95496.00;;;6.30;100.00
13867;BME280;7003;46.982;15.248;2022-11-18T11:41:13;95501.06;;;6.35;100.00
13867;BME280;7003;46.982;15.248;2022-11-18T11:44:01;95493.72;;;6.44;100.00
13867;BME280;7003;46.982;15.248;2022-11-18T11:46:44;95483.69;;;6.49;100.00
13867;BME280;7003;46.982;15.248;2022-11-18T11:49:48;95486.75;;;6.51;100.00
13867;BME280;7003;46.982;15.248;2022-11-18T11:52:28;95485.22;;;6.50;100.00
13867;BME280;7003;46.982;15.248;2022-11-18T11:55:10;95486.38;;;6.65;100.00
13867;BME280;7003;46.982;15.248;2022-11-18T11:57:58;95479.88;;;6.63;100.00
13867;BME280;7003;46.982;15.248;2022-11-18T12:00:39;95479.03;;;6.74;100.00
13867;BME280;7003;46.982;15.248;2022-11-18T12:03:20;95468.81;;;6.73;100.00
13867;BME280;7003;46.982;15.248;2022-11-18T12:05:53;95475.38;;;6.79;100.00
13867;BME280;7003;46.982;15.248;2022-11-18T12:08:24;95478.03;;;6.79;100.00
13867;BME280;7003;46.982;15.248;2022-11-18T12:11:02;95472.81;;;6.82;100.00
13867;BME280;7003;46.982;15.248;2022-11-18T12:13:39;95463.53;;;6.73;100.00
13867;BME280;7003;46.982;15.248;2022-11-18T12:16:20;95466.59;;;6.75;100.00
13867;BME280;7003;46.982;15.248;2022-11-18T12:18:58;95458.25;;;6.73;100.00
13867;BME280;7003;46.982;15.248;2022-11-18T12:21:55;95454.84;;;6.72;100.00
13867;BME280;7003;46.982;15.248;2022-11-18T12:24:31;95456.78;;;6.75;100.00
13867;BME280;7003;46.982;15.248;2022-11-18T12:27:09;95455.41;;;6.81;100.00
13867;BME280;7003;46.982;15.248;2022-11-18T12:29:54;95443.91;;;6.74;100.00
13867;BME280;7003;46.982;15.248;2022-11-18T12:32:29;95451.50;;;6.75;100.00
13867;BME280;7003;46.982;15.248;2022-11-18T12:35:03;95456.00;;;6.75;100.00
13867;BME280;7003;46.982;15.248;2022-11-18T12:37:55;95455.34;;;6.78;100.00
13867;BME280;7003;46.982;15.248;2022-11-18T12:40:33;95450.81;;;6.78;100.00
13867;BME280;7003;46.982;15.248;2022-11-18T12:43:04;95442.03;;;6.74;100.00
13867;BME280;7003;46.982;15.248;2022-11-18T12:45:52;95447.69;;;6.88;100.00
13867;BME280;7003;46.982;15.248;2022-11-18T12:48:46;95446.81;;;6.84;100.00
13867;BME280;7003;46.982;15.248;2022-11-18T12:51:48;95441.19;;;6.86;100.00
13867;BME280;7003;46.982;15.248;2022-11-18T12:54:27;95441.44;;;6.97;100.00
13867;BME280;7003;46.982;15.248;2022-11-18T12:57:00;95430.66;;;7.05;100.00
13867;BME280;7003;46.982;15.248;2022-11-18T12:59:32;95434.78;;;7.03;100.00
13867;BME280;7003;46.982;15.248;2022-11-18T13:02:06;95429.09;;;6.85;100.00
13867;BME280;7003;46.982;15.248;2022-11-18T13:05:03;95438.56;;;6.70;100.00
13867;BME280;7003;46.982;15.248;2022-11-18T13:07:32;95444.66;;;6.90;100.00
13867;BME280;7003;46.982;15.248;2022-11-18T13:10:23;95431.63;;;6.81;100.00
13867;BME280;7003;46.982;15.248;2022-11-18T13:12:50;95441.53;;;6.69;100.00
13867;BME280;7003;46.982;15.248;2022-11-18T13:15:18;95431.38;;;6.71;100.00
13867;BME280;7003;46.982;15.248;2022-11-18T13:18:13;95442.97;;;6.82;100.00
13867;BME280;7003;46.982;15.248;2022-11-18T13:20:53;95454.41;;;6.86;100.00
13867;BME280;7003;46.982;15.248;2022-11-18T13:23:28;95455.00;;;6.95;100.00
13867;BME280;7003;46.982;15.248;2022-11-18T13:26:18;95461.13;;;6.99;100.00
13867;BME280;7003;46.982;15.248;2022-11-18T13:29:11;95457.63;;;7.11;100.00
13867;BME280;7003;46.982;15.248;2022-11-18T13:31:48;95459.94;;;7.12;100.00
13867;BME280;7003;46.982;15.248;2022-11-18T13:34:22;95462.75;;;7.04;100.00